Tropical Cyclones
[Index]
Main Index Home Page Stock Weather Photos Extreme Storms Discussion Storm News and Storm Chasing Reports Tropical Cyclones / Hurricanes / Typhoons Weather Data and Links Wild Fires / Bushfires Weather Observation Techniques Weather Picture Catalogue Tornado Pictures and Reports Stock Video Footage and DVDs for sale
Season 2004-2005 Tropical Cyclone MEENA Track Map
Season 2004-2005 Summaries: [BoM-AU] [JTWC-AU] [JTWC-SIO] [JTWC-SPAC] [JTWC-SH]
<<- Previous TC | JTWC 2004-2005 Season | Next TC ->>

click for intensity scale information  Lat/long Grid: Show Hide

 Date Labels: Show Hide

Joint Typhoon Warning Centre Cyclone Data

Name: MEENA

02 Feb 2005 18:00 UTC to 07 Feb 2005 18:00 UTC

    date/time    lat    long     hPa   cat  kts
2005-02-02 18   15.1   167.3W   1004         20          
2005-02-03 00   14.9   167.6W   1002         25          
2005-02-03 06   14.7   167.9W   1002         25          
2005-02-03 12   14.3   168.0W   1000         30          
2005-02-03 18   13.9   168.0W    997         35          
2005-02-04 00   13.6   167.6W    984    2    55          
2005-02-04 00   13.6   167.6W    984    2    55          
2005-02-04 06   13.5   166.8W    980    2    60          
2005-02-04 06   13.5   166.8W    980    2    60          
2005-02-04 12   13.7   166.0W    972    2    70          
2005-02-04 12   13.7   166.0W    972    2    70          
2005-02-04 12   13.7   166.0W    972    2    70          
2005-02-04 18   14.0   165.3W    972    2    70          
2005-02-04 18   14.0   165.3W    972    2    70          
2005-02-04 18   14.0   165.3W    972    2    70          
2005-02-05 00   14.5   164.5W    967    3    75          
2005-02-05 00   14.5   164.5W    967    3    75          
2005-02-05 00   14.5   164.5W    967    3    75          
2005-02-05 06   15.1   163.8W    963    3    80          
2005-02-05 06   15.1   163.8W    963    3    80          
2005-02-05 06   15.1   163.8W    963    3    80          
2005-02-05 12   15.9   163.0W    954    3    90          
2005-02-05 12   15.9   163.0W    954    3    90          
2005-02-05 12   15.9   163.0W    954    3    90          
2005-02-05 18   16.7   162.5W    927    4   115          
2005-02-05 18   16.7   162.5W    927    4   115          
2005-02-05 18   16.7   162.5W    927    4   115          
2005-02-06 00   17.4   162.2W    916    5   125          
2005-02-06 00   17.4   162.2W    916    5   125          
2005-02-06 00   17.4   162.2W    916    5   125          
2005-02-06 06   18.5   161.5W    916    5   125          
2005-02-06 06   18.5   161.5W    916    5   125          
2005-02-06 06   18.5   161.5W    916    5   125          
2005-02-06 12   19.8   160.6W    916    5   125          
2005-02-06 12   19.8   160.6W    916    5   125          
2005-02-06 12   19.8   160.6W    916    5   125          
2005-02-06 18   21.2   159.4W    922    4   120          
2005-02-06 18   21.2   159.4W    922    4   120          
2005-02-06 18   21.2   159.4W    922    4   120          
2005-02-07 00   22.7   158.1W    944    4   100          
2005-02-07 00   22.7   158.1W    944    4   100          
2005-02-07 00   22.7   158.1W    944    4   100          
2005-02-07 06   24.2   156.5W    954    3    90          
2005-02-07 06   24.2   156.5W    954    3    90          
2005-02-07 06   24.2   156.5W    954    3    90          
2005-02-07 12   25.7   154.5W    967    3    75          
2005-02-07 12   25.7   154.5W    967    3    75          
2005-02-07 12   25.7   154.5W    967    3    75          
2005-02-07 18   27.3   151.6W    987    1    50          
2005-02-07 18   27.3   151.6W    987    1    50          
Winds are 1-min average.

Tropical cyclone tracks developed by Michael Bath using data from the Joint Typhoon Warning Centre Best Tracks and Google Maps.


[Australian Severe Weather index] [Copyright Notice] [Email Contacts] [Search This Site] [Privacy Policy]
Document: tropical_cyclone_meena.htm Updated: 28 June 2017